Pendleton, OR (97801)

04:01 PDT le 23 octobre 2014 (GMT -0700)
Sun Ridge Estates | Change Station
CLOSE
Current Station
Stations météorologiques personnelles
Location: Pendleton, OR
Altitude: 1210 ft
Stations météo à proximité

Alt. 1210 ft 45.65 °N, 118.79 °W | Updated 2 minutes ago

Couvert
Couvert
55.6 ° F
Paraît 55.6 ° F
N
0.0
Vent Variable Vent de Est
Gusts 2.0 mph

Aujourd'hui
Haut(e) -- | Bas -- ° F
--% Risque de précip.
Hier
Haut(e) -- | Bas -- ° F
Precip. -- pouce
7:22 AM 5:55 PM
Lune descendante, 0% visible
Pression 29.77 pouce
Visibilité 10.0 Miles terrestres
Nuages Peu 2000 ft
Couvert 6500 ft
Point de rosée 52 ° F
Humidité 86%
Précipitations 0.00 pouce
Profondeur de la couche neigeuse Non disponible.
UV 0 sur 12
Pollen 2.90 sur 12
Qualité de l'air Non disponible.
Flu Activity Sporadic
METAR KPDT 231053Z AUTO 08005KT 10SM FEW020 OVC065 12/11 A2980 RMK AO2 RAE03B38E52 SLP080 P0000 T01220106

More Conditions Fewer Conditions

Pression 29.77 pouce
Visibilité 10.0 Miles terrestres
Nuages Peu 2000 ft
Couvert 6500 ft
Point de rosée 52 ° F
Humidité 86%
Précipitations 0.00 pouce
Profondeur de la couche neigeuse Non disponible.
UV 0 sur 12
Pollen 2.90 sur 12
Qualité de l'air Non disponible.
Flu Activity Sporadic
METAR KPDT 231053Z AUTO 08005KT 10SM FEW020 OVC065 12/11 A2980 RMK AO2 RAE03B38E52 SLP080 P0000 T01220106

More Conditions Fewer Conditions

10-Day Weather Forecast

Almanac

Astronomie

Oct. 23, 2014 Lever Coucher
Temps réel 07:22 PDT 17:55 PDT
Crépuscule civil 06:52 PDT 18:25 PDT
Crépuscule nautique 06:17 PDT 19:00 PDT
Crépuscule astronomique 05:43 PDT 19:34 PDT
Lune 07:06 PDT 17:59 PDT
Durée de lumière visible 11h 33m
Longueur du jour
10h 33m
Tomorrow will be 3m 0s shorter.
Lune descendante, 0% of the Moon is Illuminated
Aujourd'hui
Lune descendante
Oct 23
Nouveau
Oct 30
Premier quartier
Nov 6
Pleine lune
Nov 14
Dernier quartier

Extrêmes aujourd'hui

State Highs State Lows

Community

WunderPhotos

Upload Photos

1,764,204 Photos téléchargées !

Nearby

Épaisseur de neige

Station Depth Altitude
Emigrant Springs 2 in 3925 ft
Bowman Springs 0 in 4580 ft
Lucky Strike 1 in 5050 ft
High Ridge 0 in 4980 ft
County Line 0 in 4800 ft

Activité sismique

Ville Distance Mag. Time & Date
No recent earthquake activity has been reported nearby.
Minimum magnitude displayed is 2.5.

Températures des eaux côtières

Lieu Température
Aucun rapport de station

Stations météo à proximité